Time;durP1;ratioP1;P1;durP2;ratioP2;P2;SDS_P1;SDS_P2;PMS_P1;PMS_P2;Temp;Humidity;BMP_temperature;BMP_pressure;BME280_temperature;BME280_humidity;BME280_pressure;Samples;Min_cycle;Max_cycle;Signal;HPM_P1;HPM_P2
2024/01/21 00:01:13;;;;;;;18.87;7.53;;;;;;;;;;4948197;29;19910;-55
2024/01/21 00:03:38;;;;;;;20.73;6.40;;;;;;;;;;4962122;29;20023;-56
2024/01/21 00:06:04;;;;;;;15.27;6.93;;;;;;;;;;4956408;29;20063;-57
2024/01/21 00:08:29;;;;;;;17.43;7.27;;;;;;;;;;4939465;29;20099;-54
2024/01/21 00:10:54;;;;;;;13.37;5.70;;;;;;;;;;4960774;29;20034;-59
2024/01/21 00:13:20;;;;;;;14.40;6.60;;;;;;;;;;4946926;29;20124;-59
2024/01/21 00:15:45;;;;;;;12.88;5.45;;;;;;;;;;4955928;29;20031;-56
2024/01/21 00:18:10;;;;;;;17.33;6.37;;;;;;;;;;4956602;29;20043;-56
2024/01/21 00:20:36;;;;;;;11.00;5.55;;;;;;;;;;4957574;29;20080;-58
2024/01/21 00:23:02;;;;;;;10.30;4.50;;;;;;;;;;4963488;29;20032;-58
2024/01/21 00:25:28;;;;;;;14.10;6.72;;;;;;;;;;4939546;29;20031;-55
2024/01/21 00:27:53;;;;;;;15.68;7.18;;;;;;;;;;4967279;29;20031;-59
2024/01/21 00:30:18;;;;;;;12.00;5.20;;;;;;;;;;4960124;29;20039;-58
2024/01/21 00:32:44;;;;;;;14.57;7.10;;;;;;;;;;4962333;29;20039;-56
2024/01/21 00:35:09;;;;;;;13.32;5.65;;;;;;;;;;4964091;29;20043;-55
2024/01/21 00:37:35;;;;;;;17.87;5.87;;;;;;;;;;4962925;29;20055;-59
2024/01/21 00:40:00;;;;;;;19.07;5.90;;;;;;;;;;4959740;29;20023;-56
2024/01/21 00:42:25;;;;;;;12.30;5.13;;;;;;;;;;4957394;29;20066;-57
2024/01/21 00:44:50;;;;;;;8.23;4.27;;;;;;;;;;4964076;29;20044;-58
2024/01/21 00:47:16;;;;;;;10.38;5.25;;;;;;;;;;4962323;29;20083;-56
2024/01/21 00:49:42;;;;;;;16.33;6.90;;;;;;;;;;4961113;29;20095;-59
2024/01/21 00:52:08;;;;;;;13.37;5.47;;;;;;;;;;4960389;29;20046;-60
2024/01/21 00:54:33;;;;;;;13.60;6.03;;;;;;;;;;4959560;29;20266;-60
2024/01/21 00:56:59;;;;;;;12.27;5.80;;;;;;;;;;4959802;29;20050;-59
2024/01/21 00:59:26;;;;;;;11.65;5.47;;;;;;;;;;4959371;29;20099;-59
2024/01/21 01:01:52;;;;;;;12.73;5.63;;;;;;;;;;4961131;29;20027;-59
2024/01/21 01:04:17;;;;;;;14.27;6.10;;;;;;;;;;4959529;29;20108;-58
2024/01/21 01:06:43;;;;;;;15.35;6.35;;;;;;;;;;4942836;29;20051;-59
2024/01/21 01:09:09;;;;;;;12.00;5.72;;;;;;;;;;4959412;29;20032;-57
2024/01/21 01:11:34;;;;;;;10.07;4.88;;;;;;;;;;4963942;29;20028;-59
2024/01/21 01:13:59;;;;;;;10.33;5.20;;;;;;;;;;4959343;29;20044;-57
2024/01/21 01:16:25;;;;;;;13.90;4.97;;;;;;;;;;4958735;29;20503;-60
2024/01/21 01:18:51;;;;;;;11.23;4.88;;;;;;;;;;4959320;29;20024;-60
2024/01/21 01:21:16;;;;;;;10.75;4.65;;;;;;;;;;4972516;29;20028;-58
2024/01/21 01:23:42;;;;;;;8.67;3.93;;;;;;;;;;4960220;29;20032;-59
2024/01/21 01:26:07;;;;;;;8.23;3.90;;;;;;;;;;4964353;29;20274;-56
2024/01/21 01:28:33;;;;;;;16.80;4.90;;;;;;;;;;4958097;29;20164;-58
2024/01/21 01:30:58;;;;;;;10.10;5.60;;;;;;;;;;4960703;29;20035;-57
2024/01/21 01:33:24;;;;;;;11.50;5.43;;;;;;;;;;4959140;29;20036;-59
2024/01/21 01:35:53;;;;;;;9.05;4.45;;;;;;;;;;4958590;29;20289;-58
2024/01/21 01:38:18;;;;;;;11.52;4.43;;;;;;;;;;4958323;29;20039;-58
2024/01/21 01:40:44;;;;;;;12.05;4.57;;;;;;;;;;4965759;29;20031;-57
2024/01/21 01:43:09;;;;;;;11.33;4.07;;;;;;;;;;4960275;29;20035;-58
2024/01/21 01:45:35;;;;;;;11.90;6.78;;;;;;;;;;4957854;29;20046;-60
2024/01/21 01:48:01;;;;;;;9.63;4.70;;;;;;;;;;4958770;29;20092;-58
2024/01/21 01:50:29;;;;;;;11.82;4.28;;;;;;;;;;4959184;29;20095;-60
2024/01/21 01:52:54;;;;;;;9.43;4.07;;;;;;;;;;4960045;29;20024;-59
2024/01/21 01:55:20;;;;;;;7.70;4.50;;;;;;;;;;4958325;29;20050;-59
2024/01/21 01:57:46;;;;;;;8.43;4.25;;;;;;;;;;4958695;29;20031;-59
2024/01/21 02:00:12;;;;;;;7.93;3.85;;;;;;;;;;4958483;29;20044;-58
2024/01/21 02:02:40;;;;;;;9.90;5.30;;;;;;;;;;4958312;29;20024;-58
2024/01/21 02:05:05;;;;;;;9.93;4.50;;;;;;;;;;4958907;29;20274;-58
2024/01/21 02:07:31;;;;;;;10.45;4.10;;;;;;;;;;4959581;29;20091;-59
2024/01/21 02:09:56;;;;;;;11.60;4.50;;;;;;;;;;4958642;29;20075;-58
2024/01/21 02:12:22;;;;;;;11.83;4.90;;;;;;;;;;4964769;29;20290;-59
2024/01/21 02:14:48;;;;;;;9.57;4.13;;;;;;;;;;4958035;29;20325;-56
2024/01/21 02:17:13;;;;;;;9.10;4.15;;;;;;;;;;4966697;29;20046;-58
2024/01/21 02:19:39;;;;;;;9.43;4.47;;;;;;;;;;4957863;29;20058;-57
2024/01/21 02:22:04;;;;;;;13.33;4.63;;;;;;;;;;4963719;29;20032;-58
2024/01/21 02:24:31;;;;;;;7.65;3.92;;;;;;;;;;4958234;29;20087;-58
2024/01/21 02:26:57;;;;;;;7.43;3.05;;;;;;;;;;4963210;29;20054;-59
2024/01/21 02:29:23;;;;;;;9.65;4.15;;;;;;;;;;4962276;29;20038;-57
2024/01/21 02:31:49;;;;;;;5.83;2.97;;;;;;;;;;4941573;29;20051;-57
2024/01/21 02:34:14;;;;;;;10.43;3.85;;;;;;;;;;4962062;29;20302;-58
2024/01/21 02:36:39;;;;;;;9.00;4.20;;;;;;;;;;4957594;29;20108;-63
2024/01/21 02:39:04;;;;;;;13.07;4.33;;;;;;;;;;4957718;29;20044;-56
2024/01/21 02:41:30;;;;;;;9.02;3.97;;;;;;;;;;4962459;29;20032;-56
2024/01/21 02:43:56;;;;;;;8.63;3.87;;;;;;;;;;4966298;29;20043;-58
2024/01/21 02:46:22;;;;;;;7.43;4.03;;;;;;;;;;4947885;29;20043;-59
2024/01/21 02:48:47;;;;;;;9.77;3.90;;;;;;;;;;4933545;29;20063;-60
2024/01/21 02:51:15;;;;;;;9.60;3.83;;;;;;;;;;4958200;29;20047;-57
2024/01/21 02:53:41;;;;;;;10.77;3.75;;;;;;;;;;4963723;29;20027;-55
2024/01/21 02:56:07;;;;;;;8.13;3.63;;;;;;;;;;4956550;29;20032;-56
2024/01/21 02:58:32;;;;;;;11.38;4.22;;;;;;;;;;4958180;29;20039;-52
2024/01/21 03:00:58;;;;;;;8.70;4.15;;;;;;;;;;4969014;29;20020;-58
2024/01/21 03:03:23;;;;;;;11.07;3.93;;;;;;;;;;4962642;29;20032;-56
2024/01/21 03:05:49;;;;;;;5.80;3.30;;;;;;;;;;4957706;29;20046;-58
2024/01/21 03:08:15;;;;;;;9.27;4.00;;;;;;;;;;4965409;29;20042;-57
2024/01/21 03:10:41;;;;;;;9.23;3.53;;;;;;;;;;4963180;29;20258;-57
2024/01/21 03:13:09;;;;;;;6.80;3.17;;;;;;;;;;4957917;29;20051;-58
2024/01/21 03:15:35;;;;;;;8.55;4.43;;;;;;;;;;4952339;29;20050;-58
2024/01/21 03:18:00;;;;;;;12.23;4.30;;;;;;;;;;4954376;29;20039;-59
2024/01/21 03:20:26;;;;;;;11.35;3.47;;;;;;;;;;4952658;29;20118;-57
2024/01/21 03:22:51;;;;;;;6.90;3.43;;;;;;;;;;4970208;29;20038;-59
2024/01/21 03:25:17;;;;;;;9.02;3.67;;;;;;;;;;4958568;29;20067;-60
2024/01/21 03:27:42;;;;;;;7.70;3.50;;;;;;;;;;4956967;29;20031;-60
2024/01/21 03:30:08;;;;;;;8.23;3.87;;;;;;;;;;4957262;29;20269;-60
2024/01/21 03:32:34;;;;;;;8.63;3.58;;;;;;;;;;4957365;29;20042;-58
2024/01/21 03:34:59;;;;;;;6.70;3.27;;;;;;;;;;4940206;29;20040;-59
2024/01/21 03:37:25;;;;;;;8.35;3.40;;;;;;;;;;4965565;29;20046;-59
2024/01/21 03:39:50;;;;;;;7.55;3.83;;;;;;;;;;4959263;29;20027;-58
2024/01/21 03:42:16;;;;;;;9.33;4.20;;;;;;;;;;4961695;29;20112;-59
2024/01/21 03:44:41;;;;;;;10.50;4.17;;;;;;;;;;4959025;29;20254;-58
2024/01/21 03:47:07;;;;;;;8.07;3.33;;;;;;;;;;4956936;29;20034;-58
2024/01/21 03:49:32;;;;;;;13.77;4.47;;;;;;;;;;4956953;29;20262;-59
2024/01/21 03:51:58;;;;;;;14.57;4.13;;;;;;;;;;4962246;29;20313;-58
2024/01/21 03:54:23;;;;;;;8.57;4.23;;;;;;;;;;4956898;29;20059;-56
2024/01/21 03:56:49;;;;;;;7.93;3.90;;;;;;;;;;4958580;29;20297;-59
2024/01/21 03:59:14;;;;;;;10.60;4.38;;;;;;;;;;4959378;29;20035;-59
2024/01/21 04:01:44;;;;;;;6.13;2.83;;;;;;;;;;4960572;29;20028;-59
2024/01/21 04:04:10;;;;;;;8.63;4.18;;;;;;;;;;4958708;29;20290;-58
2024/01/21 04:06:42;;;;;;;7.15;3.42;;;;;;;;;;4957023;29;20060;-60
2024/01/21 04:09:15;;;;;;;8.52;3.47;;;;;;;;;;4960619;29;20087;-59
2024/01/21 04:11:42;;;;;;;9.23;3.88;;;;;;;;;;4960847;29;20055;-57
2024/01/21 04:14:08;;;;;;;6.47;3.22;;;;;;;;;;4971884;29;20023;-57
2024/01/21 04:16:33;;;;;;;10.07;3.35;;;;;;;;;;4960848;29;20040;-58
2024/01/21 04:18:58;;;;;;;7.30;3.33;;;;;;;;;;4954696;29;20078;-58
2024/01/21 04:21:24;;;;;;;8.55;3.92;;;;;;;;;;4967845;29;20059;-58
2024/01/21 04:23:50;;;;;;;8.73;2.70;;;;;;;;;;4970366;29;20055;-59
2024/01/21 04:26:15;;;;;;;6.27;3.60;;;;;;;;;;4960642;29;20035;-58
2024/01/21 04:28:41;;;;;;;5.67;2.83;;;;;;;;;;4951075;29;20341;-58
2024/01/21 04:31:06;;;;;;;6.87;3.20;;;;;;;;;;4960677;29;20031;-59
2024/01/21 04:33:32;;;;;;;9.13;3.80;;;;;;;;;;4970836;29;20301;-59
2024/01/21 04:35:57;;;;;;;5.10;2.77;;;;;;;;;;4960443;29;20301;-59
2024/01/21 04:38:25;;;;;;;7.07;3.57;;;;;;;;;;4961662;29;20039;-57
2024/01/21 04:40:52;;;;;;;7.15;3.50;;;;;;;;;;4966511;29;20326;-57
2024/01/21 04:43:18;;;;;;;9.10;3.55;;;;;;;;;;4963983;29;20035;-58
2024/01/21 04:45:43;;;;;;;9.52;3.72;;;;;;;;;;4960402;29;20039;-59
2024/01/21 04:48:08;;;;;;;5.53;3.20;;;;;;;;;;4959897;29;20062;-57
2024/01/21 04:50:34;;;;;;;5.97;2.93;;;;;;;;;;4960235;29;20281;-60
2024/01/21 04:52:59;;;;;;;7.67;4.50;;;;;;;;;;4960630;29;20124;-57
2024/01/21 04:55:25;;;;;;;5.68;3.05;;;;;;;;;;4959904;29;20094;-59
2024/01/21 04:57:50;;;;;;;6.97;3.10;;;;;;;;;;4962429;29;20032;-57
2024/01/21 05:00:16;;;;;;;6.63;3.53;;;;;;;;;;4950287;29;20282;-58
2024/01/21 05:02:41;;;;;;;9.40;3.35;;;;;;;;;;4963466;29;20028;-58
2024/01/21 05:05:07;;;;;;;11.17;3.57;;;;;;;;;;4954023;29;20042;-56
2024/01/21 05:07:33;;;;;;;7.87;3.93;;;;;;;;;;4960035;29;20303;-59
2024/01/21 05:09:58;;;;;;;5.97;3.27;;;;;;;;;;4969442;29;20285;-59
2024/01/21 05:12:23;;;;;;;7.37;3.53;;;;;;;;;;4962380;29;20403;-59
2024/01/21 05:14:49;;;;;;;9.23;3.70;;;;;;;;;;4959489;29;20067;-58
2024/01/21 05:17:15;;;;;;;9.70;3.75;;;;;;;;;;4959312;29;20027;-61
2024/01/21 05:19:40;;;;;;;7.37;3.37;;;;;;;;;;4958324;29;20042;-57
2024/01/21 05:22:05;;;;;;;10.13;3.93;;;;;;;;;;4960808;29;20473;-58
2024/01/21 05:24:34;;;;;;;6.57;3.23;;;;;;;;;;4966826;29;20119;-58
2024/01/21 05:26:59;;;;;;;9.63;4.18;;;;;;;;;;4946413;29;20036;-57
2024/01/21 05:29:24;;;;;;;9.60;3.77;;;;;;;;;;4959714;29;20087;-59
2024/01/21 05:31:50;;;;;;;9.97;4.00;;;;;;;;;;4959244;29;20330;-58
2024/01/21 05:34:15;;;;;;;8.93;3.87;;;;;;;;;;4959348;29;20032;-57
2024/01/21 05:36:42;;;;;;;9.60;4.00;;;;;;;;;;4958889;29;20281;-58
2024/01/21 05:39:07;;;;;;;8.80;3.90;;;;;;;;;;4959069;29;20047;-58
2024/01/21 05:41:33;;;;;;;8.93;4.13;;;;;;;;;;4959388;29;20036;-60
2024/01/21 05:43:58;;;;;;;7.97;3.87;;;;;;;;;;4959290;29;20270;-58
2024/01/21 05:46:24;;;;;;;10.73;4.00;;;;;;;;;;4959113;29;20061;-56
2024/01/21 05:48:49;;;;;;;6.03;3.35;;;;;;;;;;4958872;29;20094;-60
2024/01/21 05:51:15;;;;;;;8.87;4.27;;;;;;;;;;4969400;29;20043;-60
2024/01/21 05:53:41;;;;;;;9.93;4.07;;;;;;;;;;4961264;29;20274;-59
2024/01/21 05:56:07;;;;;;;9.70;5.10;;;;;;;;;;4958824;29;20032;-58
2024/01/21 05:58:33;;;;;;;10.68;4.50;;;;;;;;;;4961556;29;20064;-60
2024/01/21 06:00:58;;;;;;;10.30;4.80;;;;;;;;;;4968108;29;20027;-59
2024/01/21 06:03:24;;;;;;;12.23;5.30;;;;;;;;;;4955881;29;20032;-56
2024/01/21 06:05:49;;;;;;;9.93;4.27;;;;;;;;;;4958501;29;20040;-59
2024/01/21 06:08:14;;;;;;;10.70;5.03;;;;;;;;;;4958676;29;20045;-59
2024/01/21 06:10:39;;;;;;;11.07;5.43;;;;;;;;;;4941447;29;20027;-59
2024/01/21 06:13:05;;;;;;;8.47;3.93;;;;;;;;;;4961126;29;20035;-59
2024/01/21 06:15:30;;;;;;;7.15;3.67;;;;;;;;;;4958481;29;20028;-58
2024/01/21 06:17:56;;;;;;;8.83;4.83;;;;;;;;;;4958446;29;20067;-58
2024/01/21 06:20:22;;;;;;;;;;;;;;;;;;4969152;29;20091;-58
2024/01/21 06:22:48;;;;;;;16.03;5.97;;;;;;;;;;4958363;29;19918;-59
2024/01/21 06:25:13;;;;;;;10.93;4.77;;;;;;;;;;4958466;29;20047;-59
2024/01/21 06:27:38;;;;;;;10.70;4.80;;;;;;;;;;4958064;29;20091;-58
2024/01/21 06:30:10;;;;;;;13.77;5.47;;;;;;;;;;4957705;29;20059;-59
2024/01/21 06:32:35;;;;;;;10.80;4.88;;;;;;;;;;4941085;29;20039;-60
2024/01/21 06:35:01;;;;;;;8.23;4.37;;;;;;;;;;4958378;29;20036;-57
2024/01/21 06:37:26;;;;;;;11.75;5.68;;;;;;;;;;4956618;29;20038;-59
2024/01/21 06:39:52;;;;;;;11.43;4.60;;;;;;;;;;4961934;29;20028;-59
2024/01/21 06:42:18;;;;;;;10.83;5.07;;;;;;;;;;4965543;29;20276;-57
2024/01/21 06:44:43;;;;;;;9.83;4.27;;;;;;;;;;4962481;29;20050;-59
2024/01/21 06:47:09;;;;;;;11.40;5.27;;;;;;;;;;4958037;29;20060;-59
2024/01/21 06:49:34;;;;;;;11.43;5.03;;;;;;;;;;4941242;29;20354;-61
2024/01/21 06:52:00;;;;;;;12.87;5.17;;;;;;;;;;4958211;29;20266;-60
2024/01/21 06:54:25;;;;;;;9.95;4.38;;;;;;;;;;4964130;29;20047;-60
2024/01/21 06:56:50;;;;;;;9.60;5.23;;;;;;;;;;4957589;29;20047;-58
2024/01/21 06:59:16;;;;;;;11.85;5.68;;;;;;;;;;4959244;29;20035;-59
2024/01/21 07:01:42;;;;;;;11.80;4.93;;;;;;;;;;4960434;29;20084;-59
2024/01/21 07:04:07;;;;;;;8.57;4.50;;;;;;;;;;4958775;29;20039;-61
2024/01/21 07:06:33;;;;;;;11.33;4.40;;;;;;;;;;4957805;29;20039;-59
2024/01/21 07:08:58;;;;;;;11.07;5.45;;;;;;;;;;4957362;29;20598;-61
2024/01/21 07:11:25;;;;;;;8.98;4.25;;;;;;;;;;4971330;29;20086;-60
2024/01/21 07:13:51;;;;;;;13.15;4.90;;;;;;;;;;4959379;29;20042;-59
2024/01/21 07:16:16;;;;;;;10.47;4.40;;;;;;;;;;4957500;29;20044;-60
2024/01/21 07:18:42;;;;;;;9.33;4.47;;;;;;;;;;4957313;29;20288;-60
2024/01/21 07:21:07;;;;;;;10.80;4.60;;;;;;;;;;4958227;29;20031;-60
2024/01/21 07:23:33;;;;;;;11.48;5.20;;;;;;;;;;4942719;29;20042;-59
2024/01/21 07:25:58;;;;;;;10.77;4.93;;;;;;;;;;4948679;29;20054;-59
2024/01/21 07:28:24;;;;;;;12.10;4.53;;;;;;;;;;4956988;29;20083;-58
2024/01/21 07:30:49;;;;;;;12.27;5.45;;;;;;;;;;4956865;29;20154;-60
2024/01/21 07:33:15;;;;;;;7.10;4.10;;;;;;;;;;4956569;29;20032;-60
2024/01/21 07:35:40;;;;;;;9.03;4.07;;;;;;;;;;4963800;29;20095;-60
2024/01/21 07:38:05;;;;;;;12.57;5.00;;;;;;;;;;4957270;29;20279;-59
2024/01/21 07:40:31;;;;;;;14.38;5.10;;;;;;;;;;4963953;29;20035;-60
2024/01/21 07:42:57;;;;;;;10.70;5.10;;;;;;;;;;4955402;29;20044;-57
2024/01/21 07:45:22;;;;;;;14.50;4.37;;;;;;;;;;4954069;29;20197;-60
2024/01/21 07:47:47;;;;;;;10.53;4.83;;;;;;;;;;4956975;29;20266;-59
2024/01/21 07:50:13;;;;;;;16.58;5.00;;;;;;;;;;4956963;29;20414;-58
2024/01/21 07:52:39;;;;;;;8.85;4.35;;;;;;;;;;4967044;29;20042;-59
2024/01/21 07:55:04;;;;;;;10.87;5.17;;;;;;;;;;4967168;29;20031;-60
2024/01/21 07:57:30;;;;;;;11.77;5.38;;;;;;;;;;4960392;29;20063;-60
2024/01/21 07:59:55;;;;;;;10.57;4.60;;;;;;;;;;4956890;29;20048;-61
2024/01/21 08:02:26;;;;;;;12.00;5.37;;;;;;;;;;4956267;29;20048;-60
2024/01/21 08:04:52;;;;;;;9.38;4.78;;;;;;;;;;4958190;29;20265;-61
2024/01/21 08:07:18;;;;;;;14.37;5.80;;;;;;;;;;4956664;29;20027;-60
2024/01/21 08:09:43;;;;;;;12.10;5.47;;;;;;;;;;4956914;29;20297;-60
2024/01/21 08:12:09;;;;;;;12.97;5.10;;;;;;;;;;4959978;29;20031;-60
2024/01/21 08:14:34;;;;;;;12.65;3.90;;;;;;;;;;4960209;29;20095;-59
2024/01/21 08:16:59;;;;;;;12.47;5.73;;;;;;;;;;4959730;29;20043;-61
2024/01/21 08:19:25;;;;;;;10.85;5.20;;;;;;;;;;4956749;29;20035;-59
2024/01/21 08:21:51;;;;;;;12.03;5.40;;;;;;;;;;4966546;29;20024;-60
2024/01/21 08:24:16;;;;;;;10.87;5.20;;;;;;;;;;4958007;29;20047;-60
2024/01/21 08:26:42;;;;;;;8.17;3.90;;;;;;;;;;4956762;29;20293;-60
2024/01/21 08:29:07;;;;;;;10.10;4.90;;;;;;;;;;4956586;29;20043;-62
2024/01/21 08:31:33;;;;;;;9.93;4.40;;;;;;;;;;4939612;29;20131;-60
2024/01/21 08:33:59;;;;;;;9.10;4.70;;;;;;;;;;4964620;29;20040;-60
2024/01/21 08:36:24;;;;;;;9.93;5.38;;;;;;;;;;4970390;29;20031;-59
2024/01/21 08:38:51;;;;;;;10.77;5.07;;;;;;;;;;4956578;29;20095;-59
2024/01/21 08:41:16;;;;;;;10.65;5.80;;;;;;;;;;4955816;29;20105;-60
2024/01/21 08:43:41;;;;;;;9.67;4.63;;;;;;;;;;4955916;29;20036;-61
2024/01/21 08:46:09;;;;;;;10.10;5.00;;;;;;;;;;4959575;29;20046;-59
2024/01/21 08:48:35;;;;;;;9.07;4.95;;;;;;;;;;4956287;29;20040;-58
2024/01/21 08:51:00;;;;;;;16.53;5.33;;;;;;;;;;4955942;29;20048;-57
2024/01/21 08:53:26;;;;;;;7.88;3.83;;;;;;;;;;4943097;29;20028;-59
2024/01/21 08:55:51;;;;;;;12.90;4.80;;;;;;;;;;4960969;29;20046;-60
2024/01/21 08:58:17;;;;;;;9.73;4.87;;;;;;;;;;4959697;29;20031;-60
2024/01/21 09:00:42;;;;;;;11.23;5.37;;;;;;;;;;4959375;29;20032;-60
2024/01/21 09:03:07;;;;;;;8.17;3.70;;;;;;;;;;4959356;29;20035;-59
2024/01/21 09:05:32;;;;;;;9.93;4.90;;;;;;;;;;4945337;29;20089;-59
2024/01/21 09:07:58;;;;;;;11.37;4.70;;;;;;;;;;4959702;29;20036;-59
2024/01/21 09:10:24;;;;;;;13.55;5.22;;;;;;;;;;4959722;29;20038;-58
2024/01/21 09:12:49;;;;;;;10.77;5.03;;;;;;;;;;4964587;29;20031;-60
2024/01/21 09:15:21;;;;;;;7.43;3.80;;;;;;;;;;4963277;29;20274;-61
2024/01/21 09:17:48;;;;;;;10.57;5.15;;;;;;;;;;4959224;29;20040;-61
2024/01/21 09:20:13;;;;;;;11.15;5.15;;;;;;;;;;4955737;29;20043;-57
2024/01/21 09:22:38;;;;;;;9.27;4.50;;;;;;;;;;4954536;29;20111;-58
2024/01/21 09:25:04;;;;;;;8.80;4.67;;;;;;;;;;4957335;29;20060;-61
2024/01/21 09:27:30;;;;;;;11.52;4.95;;;;;;;;;;4959724;29;20037;-61
2024/01/21 09:29:55;;;;;;;8.83;4.47;;;;;;;;;;4959033;29;20031;-61
2024/01/21 09:32:21;;;;;;;9.43;5.10;;;;;;;;;;4948207;29;20101;-58
2024/01/21 09:34:47;;;;;;;12.20;5.40;;;;;;;;;;4959764;29;20276;-60
2024/01/21 09:37:12;;;;;;;13.50;4.90;;;;;;;;;;4960329;29;20032;-60
2024/01/21 09:39:38;;;;;;;9.90;5.33;;;;;;;;;;4958947;29;20035;-60
2024/01/21 09:42:05;;;;;;;8.07;4.55;;;;;;;;;;4958813;29;20042;-60
2024/01/21 09:44:31;;;;;;;9.95;5.05;;;;;;;;;;4959317;29;20067;-59
2024/01/21 09:46:58;;;;;;;11.68;5.50;;;;;;;;;;4969026;29;20027;-59
2024/01/21 09:49:24;;;;;;;10.18;4.82;;;;;;;;;;4952412;29;20058;-60
2024/01/21 09:51:50;;;;;;;8.00;4.53;;;;;;;;;;4957738;29;20035;-61
2024/01/21 09:54:16;;;;;;;10.98;4.93;;;;;;;;;;4962655;29;20091;-58
2024/01/21 09:56:42;;;;;;;12.10;6.18;;;;;;;;;;4936685;29;20032;-61
2024/01/21 09:59:08;;;;;;;9.77;4.90;;;;;;;;;;4954681;29;20055;-60
2024/01/21 10:01:35;;;;;;;9.90;5.00;;;;;;;;;;4958261;29;20028;-60
2024/01/21 10:04:01;;;;;;;9.13;4.75;;;;;;;;;;4963295;29;20040;-59
2024/01/21 10:06:26;;;;;;;9.75;4.75;;;;;;;;;;4960772;29;20038;-59
2024/01/21 10:08:52;;;;;;;14.17;5.80;;;;;;;;;;4958663;29;20046;-61
2024/01/21 10:11:17;;;;;;;15.18;5.10;;;;;;;;;;4958589;29;20130;-61
2024/01/21 10:13:44;;;;;;;11.87;6.63;;;;;;;;;;4957901;29;20036;-60
2024/01/21 10:16:12;;;;;;;10.15;5.18;;;;;;;;;;4958616;29;20038;-58
2024/01/21 10:18:38;;;;;;;10.73;5.20;;;;;;;;;;4963161;29;20032;-61
2024/01/21 10:21:04;;;;;;;10.00;5.73;;;;;;;;;;4958307;29;20046;-60
2024/01/21 10:23:30;;;;;;;10.02;4.97;;;;;;;;;;4957693;29;20034;-60
2024/01/21 10:25:55;;;;;;;12.90;5.03;;;;;;;;;;4958873;29;20027;-60
2024/01/21 10:28:22;;;;;;;12.87;5.27;;;;;;;;;;4962420;29;20039;-60
2024/01/21 10:30:47;;;;;;;;;;;;;;;;;;4961097;29;20095;-60
2024/01/21 10:33:13;;;;;;;13.63;5.67;;;;;;;;;;4957539;29;19907;-58
2024/01/21 10:35:39;;;;;;;12.52;5.22;;;;;;;;;;4959918;29;20060;-59
2024/01/21 10:38:11;;;;;;;9.88;5.25;;;;;;;;;;4972274;29;20039;-59
2024/01/21 10:40:44;;;;;;;11.32;5.18;;;;;;;;;;4965215;29;20027;-61
2024/01/21 10:43:13;;;;;;;13.63;5.00;;;;;;;;;;4957239;29;20031;-60
2024/01/21 10:45:38;;;;;;;11.48;5.43;;;;;;;;;;4963522;29;20027;-59
2024/01/21 10:48:04;;;;;;;11.13;5.63;;;;;;;;;;4966350;29;20047;-60
2024/01/21 10:50:30;;;;;;;11.13;5.32;;;;;;;;;;4964504;29;20031;-60
2024/01/21 10:52:56;;;;;;;13.70;5.17;;;;;;;;;;4957473;29;20040;-61
2024/01/21 10:55:22;;;;;;;12.98;5.80;;;;;;;;;;4959773;29;20294;-59
2024/01/21 10:57:47;;;;;;;12.83;5.10;;;;;;;;;;4945293;29;20031;-61
2024/01/21 11:00:14;;;;;;;18.27;5.40;;;;;;;;;;4944012;29;20095;-59
2024/01/21 11:02:40;;;;;;;10.63;4.97;;;;;;;;;;4957840;29;20095;-60
2024/01/21 11:05:06;;;;;;;12.33;5.30;;;;;;;;;;4965154;29;20032;-59
2024/01/21 11:07:32;;;;;;;10.30;5.20;;;;;;;;;;4961996;29;20040;-59
2024/01/21 11:10:01;;;;;;;11.05;5.63;;;;;;;;;;4958685;29;20032;-59
2024/01/21 11:12:27;;;;;;;15.00;6.10;;;;;;;;;;4957316;29;20027;-60
2024/01/21 11:14:53;;;;;;;11.18;5.28;;;;;;;;;;4956999;29;20491;-60
2024/01/21 11:17:19;;;;;;;10.60;5.60;;;;;;;;;;4954246;29;20043;-58
2024/01/21 11:19:52;;;;;;;10.00;5.68;;;;;;;;;;4957311;29;20036;-58
2024/01/21 11:22:18;;;;;;;10.55;5.45;;;;;;;;;;4947570;29;20035;-59
2024/01/21 11:24:45;;;;;;;12.02;5.30;;;;;;;;;;4959928;29;20045;-61
2024/01/21 11:27:22;;;;;;;13.60;5.55;;;;;;;;;;4961478;29;20023;-60
2024/01/21 11:29:47;;;;;;;;;;;;;;;;;;4954865;29;20039;-59
2024/01/21 11:32:13;;;;;;;10.63;5.87;;;;;;;;;;4939944;29;19915;-59
2024/01/21 11:34:42;;;;;;;13.53;6.77;;;;;;;;;;4956738;29;20128;-62
2024/01/21 11:37:09;;;;;;;15.43;5.88;;;;;;;;;;4959370;29;20281;-59
2024/01/21 11:39:35;;;;;;;11.70;5.80;;;;;;;;;;4958551;29;20066;-60
2024/01/21 11:42:01;;;;;;;10.95;5.90;;;;;;;;;;4956826;29;20028;-58
2024/01/21 11:44:28;;;;;;;12.38;6.50;;;;;;;;;;4962558;29;20023;-57
2024/01/21 11:46:54;;;;;;;12.70;6.50;;;;;;;;;;4956435;29;20059;-59
2024/01/21 11:49:21;;;;;;;11.25;5.28;;;;;;;;;;4958017;29;20027;-59
2024/01/21 11:51:47;;;;;;;12.02;6.82;;;;;;;;;;4956927;29;20031;-59
2024/01/21 11:54:13;;;;;;;7.88;4.53;;;;;;;;;;4956181;29;20107;-59
2024/01/21 11:56:39;;;;;;;9.88;5.43;;;;;;;;;;4956316;29;20050;-61
2024/01/21 11:59:08;;;;;;;10.15;4.93;;;;;;;;;;4958405;29;20035;-60
2024/01/21 12:01:35;;;;;;;9.02;4.95;;;;;;;;;;4963113;29;20031;-60
2024/01/21 12:04:01;;;;;;;10.98;5.38;;;;;;;;;;4957201;29;20091;-57
2024/01/21 12:06:27;;;;;;;12.30;5.88;;;;;;;;;;4956896;29;20066;-58
2024/01/21 12:08:52;;;;;;;9.90;5.10;;;;;;;;;;4932276;29;20028;-60
2024/01/21 12:11:18;;;;;;;14.07;6.63;;;;;;;;;;4956531;29;20078;-60
2024/01/21 12:13:43;;;;;;;11.20;5.57;;;;;;;;;;4956341;29;20278;-60
2024/01/21 12:16:09;;;;;;;12.87;6.90;;;;;;;;;;4956313;29;20039;-61
2024/01/21 12:18:41;;;;;;;10.02;4.72;;;;;;;;;;4962114;29;20035;-60
2024/01/21 12:21:07;;;;;;;14.35;5.97;;;;;;;;;;4959298;29;20153;-59
2024/01/21 12:23:35;;;;;;;14.95;6.82;;;;;;;;;;4956229;29;20035;-57
2024/01/21 12:26:00;;;;;;;12.57;5.30;;;;;;;;;;4956585;29;20104;-57
2024/01/21 12:28:26;;;;;;;11.23;6.22;;;;;;;;;;4959855;28;20035;-58
2024/01/21 12:30:53;;;;;;;13.27;4.88;;;;;;;;;;4971606;29;20067;-58
2024/01/21 12:33:18;;;;;;;13.38;6.53;;;;;;;;;;4960549;29;20112;-58
2024/01/21 12:35:44;;;;;;;14.60;6.47;;;;;;;;;;4970826;29;20046;-59
2024/01/21 12:38:09;;;;;;;13.77;6.37;;;;;;;;;;4963247;29;20023;-58
2024/01/21 12:40:35;;;;;;;12.60;5.93;;;;;;;;;;4960202;29;20341;-60
2024/01/21 12:43:00;;;;;;;11.77;6.07;;;;;;;;;;4960094;29;20031;-61
2024/01/21 12:45:26;;;;;;;30.10;7.28;;;;;;;;;;4960017;29;20051;-60
2024/01/21 12:47:51;;;;;;;18.60;7.53;;;;;;;;;;4961250;29;20063;-58
2024/01/21 12:50:17;;;;;;;17.20;6.50;;;;;;;;;;4960022;29;20027;-58
2024/01/21 12:52:43;;;;;;;14.67;6.90;;;;;;;;;;4960090;29;20051;-59
2024/01/21 12:55:09;;;;;;;17.80;5.90;;;;;;;;;;4965975;29;20043;-60
2024/01/21 12:57:35;;;;;;;11.25;5.70;;;;;;;;;;4969020;29;20032;-60
2024/01/21 13:00:00;;;;;;;13.03;6.70;;;;;;;;;;4960901;29;20039;-60
2024/01/21 13:02:26;;;;;;;18.88;6.75;;;;;;;;;;4959724;29;20031;-61
2024/01/21 13:04:51;;;;;;;11.65;6.78;;;;;;;;;;4959396;29;20100;-58
2024/01/21 13:07:18;;;;;;;17.85;6.47;;;;;;;;;;4959922;29;20039;-58
2024/01/21 13:09:43;;;;;;;12.13;6.23;;;;;;;;;;4969964;29;20032;-61
2024/01/21 13:12:08;;;;;;;17.27;6.70;;;;;;;;;;4959908;29;20088;-60
2024/01/21 13:14:34;;;;;;;15.73;7.20;;;;;;;;;;4959332;29;20273;-60
2024/01/21 13:17:00;;;;;;;15.67;6.60;;;;;;;;;;4960448;29;20039;-59
2024/01/21 13:19:25;;;;;;;11.73;5.93;;;;;;;;;;4960069;29;20084;-60
2024/01/21 13:21:51;;;;;;;13.60;6.90;;;;;;;;;;4959248;29;20372;-60
2024/01/21 13:24:17;;;;;;;13.20;6.38;;;;;;;;;;4959375;29;20032;-58
2024/01/21 13:26:43;;;;;;;12.47;6.47;;;;;;;;;;4958708;29;20055;-60
2024/01/21 13:31:35;;;;;;;22.65;6.53;;;;;;;;;;4959033;29;20046;-60
2024/01/21 13:34:07;;;;;;;15.47;6.80;;;;;;;;;;4958376;29;20035;-59
2024/01/21 13:36:34;;;;;;;15.30;7.45;;;;;;;;;;4958592;29;20035;-60
2024/01/21 13:38:59;;;;;;;15.20;6.95;;;;;;;;;;4963482;29;20090;-60
2024/01/21 13:41:25;;;;;;;16.67;7.67;;;;;;;;;;4960042;28;20095;-60
2024/01/21 13:43:50;;;;;;;17.27;7.05;;;;;;;;;;4958733;29;20289;-60
2024/01/21 13:46:16;;;;;;;17.53;5.90;;;;;;;;;;4950231;29;20046;-59
2024/01/21 13:48:41;;;;;;;10.50;5.70;;;;;;;;;;4959501;29;20033;-59
2024/01/21 13:51:09;;;;;;;14.47;6.07;;;;;;;;;;4961555;28;20055;-60
2024/01/21 13:53:38;;;;;;;15.80;6.78;;;;;;;;;;4958733;29;20063;-60
2024/01/21 13:56:04;;;;;;;11.90;5.47;;;;;;;;;;4959421;29;20040;-60
2024/01/21 13:58:29;;;;;;;15.73;6.90;;;;;;;;;;4940991;29;20032;-59
2024/01/21 14:00:54;;;;;;;16.40;6.90;;;;;;;;;;4943263;29;20019;-60
2024/01/21 14:03:20;;;;;;;13.47;6.47;;;;;;;;;;4926061;29;20031;-60
2024/01/21 14:05:45;;;;;;;15.27;6.43;;;;;;;;;;4958155;29;20364;-60
2024/01/21 14:08:11;;;;;;;13.40;6.97;;;;;;;;;;4958517;29;20039;-60
2024/01/21 14:10:36;;;;;;;14.07;6.30;;;;;;;;;;4970365;29;20046;-59
2024/01/21 14:13:02;;;;;;;13.93;6.70;;;;;;;;;;4958122;29;20274;-60
2024/01/21 14:15:27;;;;;;;13.20;6.23;;;;;;;;;;4961661;29;20047;-61
2024/01/21 14:17:54;;;;;;;11.80;5.85;;;;;;;;;;4958363;29;20036;-60
2024/01/21 14:20:19;;;;;;;14.40;6.43;;;;;;;;;;4966975;29;20058;-60
2024/01/21 14:22:45;;;;;;;18.55;7.22;;;;;;;;;;4959725;29;20036;-60
2024/01/21 14:25:35;;;;;;;15.07;7.20;;;;;;;;;;4957804;29;20059;-61
2024/01/21 14:28:00;;;;;;;18.42;7.75;;;;;;;;;;4945003;29;20035;-61
2024/01/21 14:30:29;;;;;;;12.80;6.57;;;;;;;;;;4960047;29;20039;-60